sensor_id;sensor_type;location;lat;lon;timestamp;P1;durP1;ratioP1;P2;durP2;ratioP2
11086;SDS011;5597;47.588;9.642;2023-11-18T00:02:25;3.50;;;3.20;;
11086;SDS011;5597;47.588;9.642;2023-11-18T00:04:51;4.40;;;4.00;;
11086;SDS011;5597;47.588;9.642;2023-11-18T00:07:16;4.17;;;3.77;;
11086;SDS011;5597;47.588;9.642;2023-11-18T00:09:42;3.80;;;3.47;;
11086;SDS011;5597;47.588;9.642;2023-11-18T00:12:11;4.00;;;3.60;;
11086;SDS011;5597;47.588;9.642;2023-11-18T00:14:37;3.63;;;3.30;;
11086;SDS011;5597;47.588;9.642;2023-11-18T00:17:02;4.03;;;3.63;;
11086;SDS011;5597;47.588;9.642;2023-11-18T00:19:29;3.60;;;3.30;;
11086;SDS011;5597;47.588;9.642;2023-11-18T00:21:55;3.83;;;3.53;;
11086;SDS011;5597;47.588;9.642;2023-11-18T00:24:21;3.70;;;3.40;;
11086;SDS011;5597;47.588;9.642;2023-11-18T00:26:46;3.47;;;3.17;;
11086;SDS011;5597;47.588;9.642;2023-11-18T00:29:12;3.90;;;3.60;;
11086;SDS011;5597;47.588;9.642;2023-11-18T00:31:37;3.10;;;2.80;;
11086;SDS011;5597;47.588;9.642;2023-11-18T00:34:03;3.37;;;3.07;;
11086;SDS011;5597;47.588;9.642;2023-11-18T00:36:29;4.00;;;3.60;;
11086;SDS011;5597;47.588;9.642;2023-11-18T00:38:54;3.77;;;3.47;;
11086;SDS011;5597;47.588;9.642;2023-11-18T00:41:20;3.30;;;3.00;;
11086;SDS011;5597;47.588;9.642;2023-11-18T00:43:46;3.27;;;2.97;;
11086;SDS011;5597;47.588;9.642;2023-11-18T00:46:12;3.03;;;2.73;;
11086;SDS011;5597;47.588;9.642;2023-11-18T00:48:38;2.60;;;2.40;;
11086;SDS011;5597;47.588;9.642;2023-11-18T00:51:04;2.67;;;2.47;;
11086;SDS011;5597;47.588;9.642;2023-11-18T00:53:31;2.97;;;2.73;;
11086;SDS011;5597;47.588;9.642;2023-11-18T00:55:56;3.47;;;3.17;;
11086;SDS011;5597;47.588;9.642;2023-11-18T00:58:22;3.33;;;2.93;;
11086;SDS011;5597;47.588;9.642;2023-11-18T01:00:48;3.60;;;3.10;;
11086;SDS011;5597;47.588;9.642;2023-11-18T01:03:13;3.60;;;3.30;;
11086;SDS011;5597;47.588;9.642;2023-11-18T01:05:39;4.80;;;4.40;;
11086;SDS011;5597;47.588;9.642;2023-11-18T01:08:04;3.70;;;3.40;;
11086;SDS011;5597;47.588;9.642;2023-11-18T01:10:30;3.63;;;3.33;;
11086;SDS011;5597;47.588;9.642;2023-11-18T01:12:56;3.37;;;3.07;;
11086;SDS011;5597;47.588;9.642;2023-11-18T01:15:23;3.80;;;3.40;;
11086;SDS011;5597;47.588;9.642;2023-11-18T01:17:49;3.87;;;3.13;;
11086;SDS011;5597;47.588;9.642;2023-11-18T01:20:14;3.40;;;3.00;;
11086;SDS011;5597;47.588;9.642;2023-11-18T01:22:46;3.50;;;3.20;;
11086;SDS011;5597;47.588;9.642;2023-11-18T01:25:13;4.20;;;2.70;;
11086;SDS011;5597;47.588;9.642;2023-11-18T01:27:42;3.83;;;2.07;;
11086;SDS011;5597;47.588;9.642;2023-11-18T01:30:07;1.90;;;1.80;;
11086;SDS011;5597;47.588;9.642;2023-11-18T01:32:34;1.70;;;1.50;;
11086;SDS011;5597;47.588;9.642;2023-11-18T01:35:00;2.10;;;1.90;;
11086;SDS011;5597;47.588;9.642;2023-11-18T01:37:26;3.00;;;1.90;;
11086;SDS011;5597;47.588;9.642;2023-11-18T01:39:51;1.90;;;1.80;;
11086;SDS011;5597;47.588;9.642;2023-11-18T01:42:17;1.93;;;1.70;;
11086;SDS011;5597;47.588;9.642;2023-11-18T01:44:43;2.40;;;1.67;;
11086;SDS011;5597;47.588;9.642;2023-11-18T01:47:08;2.67;;;1.60;;
11086;SDS011;5597;47.588;9.642;2023-11-18T01:49:37;1.53;;;1.43;;
11086;SDS011;5597;47.588;9.642;2023-11-18T01:52:05;1.30;;;1.20;;
11086;SDS011;5597;47.588;9.642;2023-11-18T01:54:35;1.60;;;1.50;;
11086;SDS011;5597;47.588;9.642;2023-11-18T01:57:03;1.43;;;1.33;;
11086;SDS011;5597;47.588;9.642;2023-11-18T01:59:31;1.63;;;1.50;;
11086;SDS011;5597;47.588;9.642;2023-11-18T02:01:58;1.70;;;1.40;;
11086;SDS011;5597;47.588;9.642;2023-11-18T02:04:25;2.17;;;1.47;;
11086;SDS011;5597;47.588;9.642;2023-11-18T02:06:51;1.37;;;1.27;;
11086;SDS011;5597;47.588;9.642;2023-11-18T02:09:20;1.50;;;1.40;;
11086;SDS011;5597;47.588;9.642;2023-11-18T02:14:50;1.60;;;1.40;;
11086;SDS011;5597;47.588;9.642;2023-11-18T02:17:20;1.60;;;1.40;;
11086;SDS011;5597;47.588;9.642;2023-11-18T02:19:50;1.30;;;1.20;;
11086;SDS011;5597;47.588;9.642;2023-11-18T02:22:17;1.83;;;1.50;;
11086;SDS011;5597;47.588;9.642;2023-11-18T02:24:43;1.87;;;1.30;;
11086;SDS011;5597;47.588;9.642;2023-11-18T02:27:09;1.53;;;1.30;;
11086;SDS011;5597;47.588;9.642;2023-11-18T02:29:42;1.30;;;1.20;;
11086;SDS011;5597;47.588;9.642;2023-11-18T02:32:15;1.10;;;1.00;;
11086;SDS011;5597;47.588;9.642;2023-11-18T02:35:02;1.20;;;1.10;;
11086;SDS011;5597;47.588;9.642;2023-11-18T02:37:49;1.30;;;1.20;;
11086;SDS011;5597;47.588;9.642;2023-11-18T02:40:39;1.40;;;1.30;;
11086;SDS011;5597;47.588;9.642;2023-11-18T02:43:08;1.60;;;1.30;;
11086;SDS011;5597;47.588;9.642;2023-11-18T02:45:35;1.30;;;1.20;;
11086;SDS011;5597;47.588;9.642;2023-11-18T02:48:02;1.43;;;1.33;;
11086;SDS011;5597;47.588;9.642;2023-11-18T02:50:31;1.40;;;1.30;;
11086;SDS011;5597;47.588;9.642;2023-11-18T02:52:57;1.63;;;1.43;;
11086;SDS011;5597;47.588;9.642;2023-11-18T02:55:22;1.30;;;1.20;;
11086;SDS011;5597;47.588;9.642;2023-11-18T02:57:49;1.43;;;1.30;;
11086;SDS011;5597;47.588;9.642;2023-11-18T03:00:16;1.30;;;1.20;;
11086;SDS011;5597;47.588;9.642;2023-11-18T03:02:48;1.00;;;0.93;;
11086;SDS011;5597;47.588;9.642;2023-11-18T03:05:16;1.40;;;1.30;;
11086;SDS011;5597;47.588;9.642;2023-11-18T03:07:45;1.97;;;1.30;;
11086;SDS011;5597;47.588;9.642;2023-11-18T03:10:19;1.40;;;1.30;;
11086;SDS011;5597;47.588;9.642;2023-11-18T03:12:52;1.70;;;1.53;;
11086;SDS011;5597;47.588;9.642;2023-11-18T03:15:19;2.43;;;1.40;;
11086;SDS011;5597;47.588;9.642;2023-11-18T03:17:46;1.30;;;1.20;;
11086;SDS011;5597;47.588;9.642;2023-11-18T03:20:15;1.83;;;1.50;;
11086;SDS011;5597;47.588;9.642;2023-11-18T03:22:42;1.50;;;1.23;;
11086;SDS011;5597;47.588;9.642;2023-11-18T03:25:09;1.40;;;1.30;;
11086;SDS011;5597;47.588;9.642;2023-11-18T03:27:34;1.67;;;1.57;;
11086;SDS011;5597;47.588;9.642;2023-11-18T03:30:00;1.80;;;1.60;;
11086;SDS011;5597;47.588;9.642;2023-11-18T03:32:26;1.60;;;1.50;;
11086;SDS011;5597;47.588;9.642;2023-11-18T03:34:51;2.27;;;2.07;;
11086;SDS011;5597;47.588;9.642;2023-11-18T03:37:17;3.73;;;2.80;;
11086;SDS011;5597;47.588;9.642;2023-11-18T03:39:44;3.80;;;3.43;;
11086;SDS011;5597;47.588;9.642;2023-11-18T03:42:10;4.43;;;4.03;;
11086;SDS011;5597;47.588;9.642;2023-11-18T03:44:35;5.07;;;4.57;;
11086;SDS011;5597;47.588;9.642;2023-11-18T03:47:02;4.30;;;3.90;;
11086;SDS011;5597;47.588;9.642;2023-11-18T03:49:28;3.90;;;3.60;;
11086;SDS011;5597;47.588;9.642;2023-11-18T03:51:53;4.10;;;3.70;;
11086;SDS011;5597;47.588;9.642;2023-11-18T03:54:19;3.73;;;3.43;;
11086;SDS011;5597;47.588;9.642;2023-11-18T03:56:45;3.50;;;3.20;;
11086;SDS011;5597;47.588;9.642;2023-11-18T03:59:10;3.60;;;3.03;;
11086;SDS011;5597;47.588;9.642;2023-11-18T04:01:36;3.73;;;3.40;;
11086;SDS011;5597;47.588;9.642;2023-11-18T04:04:02;3.70;;;3.30;;
11086;SDS011;5597;47.588;9.642;2023-11-18T04:06:29;4.10;;;3.70;;
11086;SDS011;5597;47.588;9.642;2023-11-18T04:08:54;4.40;;;4.00;;
11086;SDS011;5597;47.588;9.642;2023-11-18T04:11:20;5.27;;;4.77;;
11086;SDS011;5597;47.588;9.642;2023-11-18T04:13:46;5.87;;;5.27;;
11086;SDS011;5597;47.588;9.642;2023-11-18T04:16:11;6.07;;;5.47;;
11086;SDS011;5597;47.588;9.642;2023-11-18T04:18:38;5.57;;;5.07;;
11086;SDS011;5597;47.588;9.642;2023-11-18T04:21:07;6.07;;;5.47;;
11086;SDS011;5597;47.588;9.642;2023-11-18T04:23:36;5.57;;;5.00;;
11086;SDS011;5597;47.588;9.642;2023-11-18T04:26:04;5.67;;;5.03;;
11086;SDS011;5597;47.588;9.642;2023-11-18T04:28:30;5.37;;;4.87;;
11086;SDS011;5597;47.588;9.642;2023-11-18T04:30:55;5.27;;;4.77;;
11086;SDS011;5597;47.588;9.642;2023-11-18T04:33:21;5.40;;;4.90;;
11086;SDS011;5597;47.588;9.642;2023-11-18T04:35:47;5.40;;;4.90;;
11086;SDS011;5597;47.588;9.642;2023-11-18T04:38:12;5.23;;;4.73;;
11086;SDS011;5597;47.588;9.642;2023-11-18T04:40:38;6.13;;;5.53;;
11086;SDS011;5597;47.588;9.642;2023-11-18T04:43:06;6.77;;;6.07;;
11086;SDS011;5597;47.588;9.642;2023-11-18T04:45:32;7.10;;;6.40;;
11086;SDS011;5597;47.588;9.642;2023-11-18T04:47:57;6.50;;;5.90;;
11086;SDS011;5597;47.588;9.642;2023-11-18T04:50:24;6.40;;;5.80;;
11086;SDS011;5597;47.588;9.642;2023-11-18T04:52:50;6.10;;;5.50;;
11086;SDS011;5597;47.588;9.642;2023-11-18T04:55:15;6.27;;;5.67;;
11086;SDS011;5597;47.588;9.642;2023-11-18T04:57:41;5.63;;;5.03;;
11086;SDS011;5597;47.588;9.642;2023-11-18T05:00:07;6.00;;;5.20;;
11086;SDS011;5597;47.588;9.642;2023-11-18T05:02:37;5.33;;;4.83;;
11086;SDS011;5597;47.588;9.642;2023-11-18T05:05:05;5.80;;;5.20;;
11086;SDS011;5597;47.588;9.642;2023-11-18T05:07:31;5.70;;;5.13;;
11086;SDS011;5597;47.588;9.642;2023-11-18T05:09:58;7.23;;;6.07;;
11086;SDS011;5597;47.588;9.642;2023-11-18T05:12:23;6.07;;;5.47;;
11086;SDS011;5597;47.588;9.642;2023-11-18T05:14:49;6.30;;;5.70;;
11086;SDS011;5597;47.588;9.642;2023-11-18T05:17:17;6.60;;;5.90;;
11086;SDS011;5597;47.588;9.642;2023-11-18T05:19:43;6.53;;;5.93;;
11086;SDS011;5597;47.588;9.642;2023-11-18T05:22:08;7.37;;;6.60;;
11086;SDS011;5597;47.588;9.642;2023-11-18T05:24:34;6.73;;;6.03;;
11086;SDS011;5597;47.588;9.642;2023-11-18T05:27:00;6.80;;;5.90;;
11086;SDS011;5597;47.588;9.642;2023-11-18T05:29:27;6.33;;;5.73;;
11086;SDS011;5597;47.588;9.642;2023-11-18T05:31:53;6.53;;;5.83;;
11086;SDS011;5597;47.588;9.642;2023-11-18T05:34:19;6.67;;;6.07;;
11086;SDS011;5597;47.588;9.642;2023-11-18T05:36:46;6.70;;;6.00;;
11086;SDS011;5597;47.588;9.642;2023-11-18T05:39:13;6.40;;;5.80;;
11086;SDS011;5597;47.588;9.642;2023-11-18T05:41:40;7.00;;;6.30;;
11086;SDS011;5597;47.588;9.642;2023-11-18T05:44:10;5.90;;;5.30;;
11086;SDS011;5597;47.588;9.642;2023-11-18T05:46:42;5.63;;;5.13;;
11086;SDS011;5597;47.588;9.642;2023-11-18T05:49:11;5.77;;;5.10;;
11086;SDS011;5597;47.588;9.642;2023-11-18T05:51:38;5.77;;;5.17;;
11086;SDS011;5597;47.588;9.642;2023-11-18T05:54:05;5.80;;;5.20;;
11086;SDS011;5597;47.588;9.642;2023-11-18T05:56:31;6.40;;;5.80;;
11086;SDS011;5597;47.588;9.642;2023-11-18T05:58:57;5.73;;;5.13;;
11086;SDS011;5597;47.588;9.642;2023-11-18T06:01:23;5.20;;;4.70;;
11086;SDS011;5597;47.588;9.642;2023-11-18T06:03:52;4.90;;;4.40;;
11086;SDS011;5597;47.588;9.642;2023-11-18T06:06:18;5.53;;;4.93;;
11086;SDS011;5597;47.588;9.642;2023-11-18T06:08:46;5.70;;;5.10;;
11086;SDS011;5597;47.588;9.642;2023-11-18T06:11:12;6.20;;;5.60;;
11086;SDS011;5597;47.588;9.642;2023-11-18T06:13:43;6.57;;;5.80;;
11086;SDS011;5597;47.588;9.642;2023-11-18T06:16:14;6.30;;;5.50;;
11086;SDS011;5597;47.588;9.642;2023-11-18T06:18:47;6.33;;;5.43;;
11086;SDS011;5597;47.588;9.642;2023-11-18T06:21:14;7.30;;;5.73;;
11086;SDS011;5597;47.588;9.642;2023-11-18T06:23:43;6.73;;;5.90;;
11086;SDS011;5597;47.588;9.642;2023-11-18T06:26:11;7.47;;;6.00;;
11086;SDS011;5597;47.588;9.642;2023-11-18T06:28:40;7.13;;;6.27;;
11086;SDS011;5597;47.588;9.642;2023-11-18T06:31:07;7.67;;;6.27;;
11086;SDS011;5597;47.588;9.642;2023-11-18T06:33:37;6.47;;;5.73;;
11086;SDS011;5597;47.588;9.642;2023-11-18T06:36:07;7.47;;;6.43;;
11086;SDS011;5597;47.588;9.642;2023-11-18T06:38:39;6.63;;;5.90;;
11086;SDS011;5597;47.588;9.642;2023-11-18T06:41:05;6.97;;;6.20;;
11086;SDS011;5597;47.588;9.642;2023-11-18T06:43:35;7.10;;;6.40;;
11086;SDS011;5597;47.588;9.642;2023-11-18T06:46:20;7.23;;;6.40;;
11086;SDS011;5597;47.588;9.642;2023-11-18T06:48:50;6.23;;;5.63;;
11086;SDS011;5597;47.588;9.642;2023-11-18T06:51:19;7.03;;;6.20;;
11086;SDS011;5597;47.588;9.642;2023-11-18T06:53:48;7.20;;;6.50;;
11086;SDS011;5597;47.588;9.642;2023-11-18T06:56:14;8.47;;;7.57;;
11086;SDS011;5597;47.588;9.642;2023-11-18T06:58:40;8.23;;;7.33;;
11086;SDS011;5597;47.588;9.642;2023-11-18T07:01:07;8.53;;;7.17;;
11086;SDS011;5597;47.588;9.642;2023-11-18T07:03:34;8.00;;;6.80;;
11086;SDS011;5597;47.588;9.642;2023-11-18T07:06:01;7.73;;;6.90;;
11086;SDS011;5597;47.588;9.642;2023-11-18T07:08:27;8.10;;;7.30;;
11086;SDS011;5597;47.588;9.642;2023-11-18T07:10:53;8.37;;;7.23;;
11086;SDS011;5597;47.588;9.642;2023-11-18T07:13:18;8.23;;;7.37;;
11086;SDS011;5597;47.588;9.642;2023-11-18T07:15:44;8.43;;;7.53;;
11086;SDS011;5597;47.588;9.642;2023-11-18T07:18:09;9.40;;;8.43;;
11086;SDS011;5597;47.588;9.642;2023-11-18T07:20:36;9.53;;;8.13;;
11086;SDS011;5597;47.588;9.642;2023-11-18T07:23:02;9.87;;;8.87;;
11086;SDS011;5597;47.588;9.642;2023-11-18T07:25:28;11.70;;;10.13;;
11086;SDS011;5597;47.588;9.642;2023-11-18T07:27:53;9.53;;;8.53;;
11086;SDS011;5597;47.588;9.642;2023-11-18T07:30:20;10.17;;;9.07;;
11086;SDS011;5597;47.588;9.642;2023-11-18T07:32:47;10.13;;;8.70;;
11086;SDS011;5597;47.588;9.642;2023-11-18T07:35:14;12.40;;;8.27;;
11086;SDS011;5597;47.588;9.642;2023-11-18T07:37:39;7.60;;;6.73;;
11086;SDS011;5597;47.588;9.642;2023-11-18T07:40:05;8.07;;;6.80;;
11086;SDS011;5597;47.588;9.642;2023-11-18T07:42:31;5.83;;;5.23;;
11086;SDS011;5597;47.588;9.642;2023-11-18T07:45:00;6.00;;;5.40;;
11086;SDS011;5597;47.588;9.642;2023-11-18T07:47:29;5.90;;;5.30;;
11086;SDS011;5597;47.588;9.642;2023-11-18T07:49:59;5.40;;;4.90;;
11086;SDS011;5597;47.588;9.642;2023-11-18T07:52:27;5.93;;;5.33;;
11086;SDS011;5597;47.588;9.642;2023-11-18T07:54:54;5.20;;;4.70;;
11086;SDS011;5597;47.588;9.642;2023-11-18T07:57:19;5.13;;;4.63;;
11086;SDS011;5597;47.588;9.642;2023-11-18T07:59:45;5.33;;;4.80;;
11086;SDS011;5597;47.588;9.642;2023-11-18T08:02:11;4.90;;;4.27;;
11086;SDS011;5597;47.588;9.642;2023-11-18T08:04:39;5.30;;;4.80;;
11086;SDS011;5597;47.588;9.642;2023-11-18T08:07:06;6.13;;;4.87;;
11086;SDS011;5597;47.588;9.642;2023-11-18T08:09:32;5.70;;;4.90;;
11086;SDS011;5597;47.588;9.642;2023-11-18T08:11:58;5.53;;;4.57;;
11086;SDS011;5597;47.588;9.642;2023-11-18T08:14:23;4.47;;;4.07;;
11086;SDS011;5597;47.588;9.642;2023-11-18T08:16:49;4.87;;;4.47;;
11086;SDS011;5597;47.588;9.642;2023-11-18T08:19:16;5.10;;;4.57;;
11086;SDS011;5597;47.588;9.642;2023-11-18T08:21:42;4.47;;;4.07;;
11086;SDS011;5597;47.588;9.642;2023-11-18T08:24:08;4.13;;;3.73;;
11086;SDS011;5597;47.588;9.642;2023-11-18T08:26:34;4.60;;;4.20;;
11086;SDS011;5597;47.588;9.642;2023-11-18T08:29:00;4.27;;;3.87;;
11086;SDS011;5597;47.588;9.642;2023-11-18T08:31:26;4.33;;;3.93;;
11086;SDS011;5597;47.588;9.642;2023-11-18T08:33:52;4.90;;;4.07;;
11086;SDS011;5597;47.588;9.642;2023-11-18T08:36:19;4.83;;;3.87;;
11086;SDS011;5597;47.588;9.642;2023-11-18T08:38:47;4.70;;;4.30;;
11086;SDS011;5597;47.588;9.642;2023-11-18T08:41:13;3.80;;;3.40;;
11086;SDS011;5597;47.588;9.642;2023-11-18T08:43:38;3.60;;;3.30;;
11086;SDS011;5597;47.588;9.642;2023-11-18T08:46:06;3.27;;;2.97;;
11086;SDS011;5597;47.588;9.642;2023-11-18T08:48:32;4.00;;;3.07;;
11086;SDS011;5597;47.588;9.642;2023-11-18T08:50:59;3.10;;;2.80;;
11086;SDS011;5597;47.588;9.642;2023-11-18T08:53:26;3.40;;;3.00;;
11086;SDS011;5597;47.588;9.642;2023-11-18T08:55:52;3.87;;;3.43;;
11086;SDS011;5597;47.588;9.642;2023-11-18T08:58:21;3.67;;;3.37;;
11086;SDS011;5597;47.588;9.642;2023-11-18T09:00:50;3.23;;;2.93;;
11086;SDS011;5597;47.588;9.642;2023-11-18T09:03:20;3.67;;;3.33;;
11086;SDS011;5597;47.588;9.642;2023-11-18T09:05:53;3.90;;;3.40;;
11086;SDS011;5597;47.588;9.642;2023-11-18T09:08:26;4.10;;;3.70;;
11086;SDS011;5597;47.588;9.642;2023-11-18T09:11:03;4.40;;;4.00;;
11086;SDS011;5597;47.588;9.642;2023-11-18T09:13:31;3.77;;;3.40;;
11086;SDS011;5597;47.588;9.642;2023-11-18T09:16:00;3.40;;;3.10;;
11086;SDS011;5597;47.588;9.642;2023-11-18T09:18:33;4.50;;;3.30;;
11086;SDS011;5597;47.588;9.642;2023-11-18T09:21:00;3.97;;;3.47;;
11086;SDS011;5597;47.588;9.642;2023-11-18T09:23:26;3.30;;;3.00;;
11086;SDS011;5597;47.588;9.642;2023-11-18T09:25:52;3.77;;;2.93;;
11086;SDS011;5597;47.588;9.642;2023-11-18T09:28:23;3.37;;;2.90;;
11086;SDS011;5597;47.588;9.642;2023-11-18T09:30:55;3.73;;;3.00;;
11086;SDS011;5597;47.588;9.642;2023-11-18T09:33:26;3.60;;;2.80;;
11086;SDS011;5597;47.588;9.642;2023-11-18T09:36:04;3.27;;;2.67;;
11086;SDS011;5597;47.588;9.642;2023-11-18T09:38:35;3.33;;;3.03;;
11086;SDS011;5597;47.588;9.642;2023-11-18T09:41:03;3.30;;;3.00;;
11086;SDS011;5597;47.588;9.642;2023-11-18T09:43:35;3.13;;;2.83;;
11086;SDS011;5597;47.588;9.642;2023-11-18T09:46:10;3.90;;;2.90;;
11086;SDS011;5597;47.588;9.642;2023-11-18T09:48:43;4.00;;;2.50;;
11086;SDS011;5597;47.588;9.642;2023-11-18T09:51:21;4.00;;;2.97;;
11086;SDS011;5597;47.588;9.642;2023-11-18T09:53:51;3.10;;;2.80;;
11086;SDS011;5597;47.588;9.642;2023-11-18T09:56:23;3.50;;;3.00;;
11086;SDS011;5597;47.588;9.642;2023-11-18T10:01:41;3.20;;;2.90;;
11086;SDS011;5597;47.588;9.642;2023-11-18T10:04:12;3.67;;;2.73;;
11086;SDS011;5597;47.588;9.642;2023-11-18T10:06:42;2.87;;;2.67;;
11086;SDS011;5597;47.588;9.642;2023-11-18T10:09:09;2.70;;;2.50;;
11086;SDS011;5597;47.588;9.642;2023-11-18T10:11:48;2.60;;;2.40;;
11086;SDS011;5597;47.588;9.642;2023-11-18T10:14:14;2.80;;;2.60;;
11086;SDS011;5597;47.588;9.642;2023-11-18T10:16:43;2.67;;;2.47;;
11086;SDS011;5597;47.588;9.642;2023-11-18T10:19:12;4.67;;;3.23;;
11086;SDS011;5597;47.588;9.642;2023-11-18T10:21:39;3.50;;;3.20;;
11086;SDS011;5597;47.588;9.642;2023-11-18T10:24:08;3.10;;;2.80;;
11086;SDS011;5597;47.588;9.642;2023-11-18T10:27:00;3.07;;;2.50;;
11086;SDS011;5597;47.588;9.642;2023-11-18T10:29:25;3.93;;;2.90;;
11086;SDS011;5597;47.588;9.642;2023-11-18T10:32:06;2.90;;;2.60;;
11086;SDS011;5597;47.588;9.642;2023-11-18T10:34:34;3.53;;;3.23;;
11086;SDS011;5597;47.588;9.642;2023-11-18T10:37:00;6.43;;;4.70;;
11086;SDS011;5597;47.588;9.642;2023-11-18T10:39:31;4.37;;;3.67;;
11086;SDS011;5597;47.588;9.642;2023-11-18T10:42:01;4.03;;;3.10;;
11086;SDS011;5597;47.588;9.642;2023-11-18T10:44:27;2.60;;;2.30;;
11086;SDS011;5597;47.588;9.642;2023-11-18T10:46:54;3.57;;;3.00;;
11086;SDS011;5597;47.588;9.642;2023-11-18T10:49:23;3.77;;;3.27;;
11086;SDS011;5597;47.588;9.642;2023-11-18T10:51:52;4.40;;;3.43;;
11086;SDS011;5597;47.588;9.642;2023-11-18T10:54:19;2.20;;;2.00;;
11086;SDS011;5597;47.588;9.642;2023-11-18T10:56:47;2.67;;;2.00;;
11086;SDS011;5597;47.588;9.642;2023-11-18T10:59:14;2.90;;;2.60;;
11086;SDS011;5597;47.588;9.642;2023-11-18T11:01:43;3.20;;;2.20;;
11086;SDS011;5597;47.588;9.642;2023-11-18T11:04:12;2.53;;;2.10;;
11086;SDS011;5597;47.588;9.642;2023-11-18T11:06:42;2.00;;;1.80;;
11086;SDS011;5597;47.588;9.642;2023-11-18T11:09:17;2.50;;;2.10;;
11086;SDS011;5597;47.588;9.642;2023-11-18T11:11:49;1.80;;;1.70;;
11086;SDS011;5597;47.588;9.642;2023-11-18T11:14:20;2.23;;;2.03;;
11086;SDS011;5597;47.588;9.642;2023-11-18T11:16:52;2.77;;;2.17;;
11086;SDS011;5597;47.588;9.642;2023-11-18T11:19:26;2.50;;;2.30;;
11086;SDS011;5597;47.588;9.642;2023-11-18T11:22:09;2.70;;;2.10;;
11086;SDS011;5597;47.588;9.642;2023-11-18T11:27:59;1.40;;;1.30;;
11086;SDS011;5597;47.588;9.642;2023-11-18T11:30:45;1.93;;;1.40;;
11086;SDS011;5597;47.588;9.642;2023-11-18T11:33:17;1.90;;;1.50;;
11086;SDS011;5597;47.588;9.642;2023-11-18T11:35:50;1.30;;;1.20;;
11086;SDS011;5597;47.588;9.642;2023-11-18T11:38:22;1.40;;;1.30;;
11086;SDS011;5597;47.588;9.642;2023-11-18T11:40:49;1.77;;;1.53;;
11086;SDS011;5597;47.588;9.642;2023-11-18T11:43:17;2.53;;;1.90;;
11086;SDS011;5597;47.588;9.642;2023-11-18T11:45:47;2.10;;;1.53;;
11086;SDS011;5597;47.588;9.642;2023-11-18T11:48:16;1.93;;;1.40;;
11086;SDS011;5597;47.588;9.642;2023-11-18T11:51:00;1.90;;;1.70;;
11086;SDS011;5597;47.588;9.642;2023-11-18T11:53:40;1.77;;;1.63;;
11086;SDS011;5597;47.588;9.642;2023-11-18T11:56:13;1.80;;;1.70;;
11086;SDS011;5597;47.588;9.642;2023-11-18T11:58:49;1.67;;;1.53;;
11086;SDS011;5597;47.588;9.642;2023-11-18T12:03:48;2.03;;;1.60;;
11086;SDS011;5597;47.588;9.642;2023-11-18T12:06:20;2.17;;;1.97;;
11086;SDS011;5597;47.588;9.642;2023-11-18T12:08:50;2.03;;;1.83;;
11086;SDS011;5597;47.588;9.642;2023-11-18T12:11:17;6.97;;;3.53;;
11086;SDS011;5597;47.588;9.642;2023-11-18T12:14:01;2.63;;;2.03;;
11086;SDS011;5597;47.588;9.642;2023-11-18T12:19:45;1.70;;;1.60;;
11086;SDS011;5597;47.588;9.642;2023-11-18T12:22:15;2.30;;;1.60;;
11086;SDS011;5597;47.588;9.642;2023-11-18T12:30:05;1.93;;;1.67;;
11086;SDS011;5597;47.588;9.642;2023-11-18T12:33:01;1.73;;;1.63;;
11086;SDS011;5597;47.588;9.642;2023-11-18T12:41:08;1.50;;;1.20;;
11086;SDS011;5597;47.588;9.642;2023-11-18T12:49:20;1.17;;;1.07;;
11086;SDS011;5597;47.588;9.642;2023-11-18T12:51:51;1.53;;;1.20;;
11086;SDS011;5597;47.588;9.642;2023-11-18T12:54:17;1.63;;;1.20;;
11086;SDS011;5597;47.588;9.642;2023-11-18T12:56:44;1.40;;;1.30;;
11086;SDS011;5597;47.588;9.642;2023-11-18T12:59:16;1.47;;;1.33;;
11086;SDS011;5597;47.588;9.642;2023-11-18T13:01:49;1.40;;;1.30;;
11086;SDS011;5597;47.588;9.642;2023-11-18T13:04:28;1.57;;;1.23;;
11086;SDS011;5597;47.588;9.642;2023-11-18T13:06:55;1.27;;;1.10;;
11086;SDS011;5597;47.588;9.642;2023-11-18T13:09:23;1.57;;;1.30;;
11086;SDS011;5597;47.588;9.642;2023-11-18T13:11:56;1.30;;;1.20;;
11086;SDS011;5597;47.588;9.642;2023-11-18T13:14:29;1.33;;;1.03;;
11086;SDS011;5597;47.588;9.642;2023-11-18T13:17:01;1.40;;;1.30;;
11086;SDS011;5597;47.588;9.642;2023-11-18T13:19:30;2.00;;;1.40;;
11086;SDS011;5597;47.588;9.642;2023-11-18T13:22:00;1.53;;;1.30;;
11086;SDS011;5597;47.588;9.642;2023-11-18T13:24:40;1.20;;;1.10;;
11086;SDS011;5597;47.588;9.642;2023-11-18T13:27:10;1.30;;;1.20;;
11086;SDS011;5597;47.588;9.642;2023-11-18T13:29:43;1.23;;;1.13;;
11086;SDS011;5597;47.588;9.642;2023-11-18T13:32:10;1.73;;;1.33;;
11086;SDS011;5597;47.588;9.642;2023-11-18T13:34:37;1.30;;;1.10;;
11086;SDS011;5597;47.588;9.642;2023-11-18T13:37:07;1.13;;;1.03;;
11086;SDS011;5597;47.588;9.642;2023-11-18T13:39:36;1.37;;;1.20;;
11086;SDS011;5597;47.588;9.642;2023-11-18T13:42:19;1.93;;;1.30;;
11086;SDS011;5597;47.588;9.642;2023-11-18T13:44:48;1.10;;;1.00;;
11086;SDS011;5597;47.588;9.642;2023-11-18T13:47:18;1.10;;;1.00;;
11086;SDS011;5597;47.588;9.642;2023-11-18T13:49:44;2.07;;;1.13;;
11086;SDS011;5597;47.588;9.642;2023-11-18T13:52:12;1.50;;;1.10;;
11086;SDS011;5597;47.588;9.642;2023-11-18T13:54:41;1.40;;;1.30;;
11086;SDS011;5597;47.588;9.642;2023-11-18T13:57:10;1.93;;;1.43;;
11086;SDS011;5597;47.588;9.642;2023-11-18T13:59:36;1.57;;;1.47;;
11086;SDS011;5597;47.588;9.642;2023-11-18T14:02:03;1.37;;;1.23;;
11086;SDS011;5597;47.588;9.642;2023-11-18T14:04:29;1.23;;;1.13;;
11086;SDS011;5597;47.588;9.642;2023-11-18T14:06:58;1.40;;;1.30;;
11086;SDS011;5597;47.588;9.642;2023-11-18T14:09:30;1.17;;;1.07;;
11086;SDS011;5597;47.588;9.642;2023-11-18T14:12:00;1.20;;;1.07;;
11086;SDS011;5597;47.588;9.642;2023-11-18T14:14:27;1.40;;;1.20;;
11086;SDS011;5597;47.588;9.642;2023-11-18T14:16:53;1.47;;;1.37;;
11086;SDS011;5597;47.588;9.642;2023-11-18T14:19:22;1.73;;;1.20;;
11086;SDS011;5597;47.588;9.642;2023-11-18T14:21:51;1.57;;;1.47;;
11086;SDS011;5597;47.588;9.642;2023-11-18T14:24:17;1.53;;;1.40;;
11086;SDS011;5597;47.588;9.642;2023-11-18T14:26:43;2.77;;;1.80;;
11086;SDS011;5597;47.588;9.642;2023-11-18T14:29:09;1.80;;;1.70;;
11086;SDS011;5597;47.588;9.642;2023-11-18T14:31:36;1.70;;;1.57;;
11086;SDS011;5597;47.588;9.642;2023-11-18T14:34:02;2.10;;;1.73;;
11086;SDS011;5597;47.588;9.642;2023-11-18T14:36:28;1.80;;;1.70;;
11086;SDS011;5597;47.588;9.642;2023-11-18T14:38:55;1.50;;;1.40;;
11086;SDS011;5597;47.588;9.642;2023-11-18T14:41:20;1.70;;;1.50;;
11086;SDS011;5597;47.588;9.642;2023-11-18T14:43:52;1.77;;;1.63;;
11086;SDS011;5597;47.588;9.642;2023-11-18T14:46:17;1.97;;;1.77;;
11086;SDS011;5597;47.588;9.642;2023-11-18T14:48:43;1.77;;;1.60;;
11086;SDS011;5597;47.588;9.642;2023-11-18T14:51:09;1.90;;;1.67;;
11086;SDS011;5597;47.588;9.642;2023-11-18T14:53:36;1.80;;;1.60;;
11086;SDS011;5597;47.588;9.642;2023-11-18T14:56:02;1.70;;;1.60;;
11086;SDS011;5597;47.588;9.642;2023-11-18T14:58:30;1.73;;;1.50;;
11086;SDS011;5597;47.588;9.642;2023-11-18T15:00:57;2.30;;;1.60;;
11086;SDS011;5597;47.588;9.642;2023-11-18T15:03:25;1.67;;;1.57;;
11086;SDS011;5597;47.588;9.642;2023-11-18T15:05:51;2.17;;;2.00;;
11086;SDS011;5597;47.588;9.642;2023-11-18T15:08:16;2.40;;;2.20;;
11086;SDS011;5597;47.588;9.642;2023-11-18T15:10:42;2.83;;;2.47;;
11086;SDS011;5597;47.588;9.642;2023-11-18T15:13:09;3.63;;;2.87;;
11086;SDS011;5597;47.588;9.642;2023-11-18T15:15:40;3.00;;;2.63;;
11086;SDS011;5597;47.588;9.642;2023-11-18T15:18:06;4.57;;;3.63;;
11086;SDS011;5597;47.588;9.642;2023-11-18T15:20:42;6.23;;;5.23;;
11086;SDS011;5597;47.588;9.642;2023-11-18T15:23:11;5.37;;;4.03;;
11086;SDS011;5597;47.588;9.642;2023-11-18T15:25:37;4.17;;;3.57;;
11086;SDS011;5597;47.588;9.642;2023-11-18T15:28:04;3.33;;;2.83;;
11086;SDS011;5597;47.588;9.642;2023-11-18T15:30:34;3.23;;;2.60;;
11086;SDS011;5597;47.588;9.642;2023-11-18T15:33:00;2.17;;;1.80;;
11086;SDS011;5597;47.588;9.642;2023-11-18T15:35:26;1.93;;;1.60;;
11086;SDS011;5597;47.588;9.642;2023-11-18T15:37:53;1.70;;;1.60;;
11086;SDS011;5597;47.588;9.642;2023-11-18T15:40:19;1.70;;;1.57;;